createdAt,value
2023-02-01T00:01:38.093Z,128.06
2023-02-01T00:04:44.229Z,134.33
2023-02-01T00:07:52.226Z,140.20
2023-02-01T00:11:06.594Z,116.64
2023-02-01T00:14:13.388Z,118.11
2023-02-01T00:17:21.886Z,135.13
2023-02-01T00:20:28.457Z,121.39
2023-02-01T00:23:37.661Z,117.77
2023-02-01T00:26:47.511Z,117.50
2023-02-01T00:29:53.400Z,113.92
2023-02-01T00:33:02.617Z,116.80
2023-02-01T00:36:12.883Z,117.08
2023-02-01T00:39:20.338Z,110.92
2023-02-01T00:42:26.074Z,110.38
2023-02-01T00:45:32.772Z,102.25
2023-02-01T00:48:41.388Z,95.82
2023-02-01T00:51:51.538Z,86.51
2023-02-01T00:54:57.347Z,91.16
2023-02-01T00:58:03.919Z,86.79
2023-02-01T01:04:53.369Z,71.43
2023-02-01T01:07:59.133Z,66.85
2023-02-01T01:11:10.661Z,120.00
2023-02-01T01:14:16.427Z,54.26
2023-02-01T01:17:23.204Z,52.13
2023-02-01T01:20:31.679Z,37.31
2023-02-01T01:23:39.843Z,32.80
2023-02-01T01:26:45.787Z,31.11
2023-02-01T01:29:52.487Z,30.94
2023-02-01T01:32:58.272Z,35.68
2023-02-01T01:36:15.035Z,54.21
2023-02-01T01:39:20.767Z,33.56
2023-02-01T01:42:27.448Z,34.27
2023-02-01T01:45:36.606Z,32.13
2023-02-01T01:48:43.318Z,27.68
2023-02-01T01:51:59.419Z,27.93
2023-02-01T01:55:07.537Z,24.82
2023-02-01T01:58:21.609Z,28.55
2023-02-01T02:01:28.832Z,18.46
2023-02-01T02:04:37.280Z,23.58
2023-02-01T02:07:54.832Z,22.08
2023-02-01T02:11:03.916Z,15.21
2023-02-01T02:14:17.194Z,9.71
2023-02-01T02:17:51.122Z,10.38
2023-02-01T02:21:20.420Z,16.20
2023-02-01T02:25:09.628Z,15.98
2023-02-01T02:29:00.308Z,17.31
2023-02-01T02:33:02.588Z,20.44
2023-02-01T02:36:27.270Z,16.35
2023-02-01T02:39:55.330Z,18.12
2023-02-01T02:43:25.823Z,15.93
2023-02-01T02:46:55.158Z,17.95
2023-02-01T02:50:35.197Z,16.99
2023-02-01T02:54:13.783Z,21.60
2023-02-01T02:57:39.166Z,24.35
2023-02-01T03:01:01.577Z,23.13
2023-02-01T03:04:18.583Z,23.51
2023-02-01T03:08:20.494Z,23.96
2023-02-01T03:11:49.697Z,29.54
2023-02-01T03:15:16.506Z,29.63
2023-02-01T03:18:44.150Z,22.87
2023-02-01T03:21:57.393Z,25.12
2023-02-01T03:25:16.624Z,29.92
2023-02-01T03:28:31.934Z,37.68
2023-02-01T03:31:38.735Z,29.34
2023-02-01T03:34:45.505Z,25.57
2023-02-01T03:37:56.553Z,24.22
2023-02-01T03:41:15.282Z,80.94
2023-02-01T03:44:35.005Z,77.57
2023-02-01T03:47:50.803Z,90.16
2023-02-01T03:51:05.936Z,105.42
2023-02-01T03:54:19.307Z,98.87
2023-02-01T03:57:33.796Z,110.33
2023-02-01T04:00:43.915Z,114.23
2023-02-01T04:03:52.411Z,94.43
2023-02-01T04:06:58.186Z,92.63
2023-02-01T04:10:05.135Z,113.56
2023-02-01T04:13:10.888Z,120.56
2023-02-01T04:16:20.120Z,127.51
2023-02-01T04:19:25.828Z,149.28
2023-02-01T04:22:32.681Z,100.06
2023-02-01T04:25:38.444Z,63.32
2023-02-01T04:28:45.256Z,65.09
2023-02-01T04:31:54.278Z,68.99
2023-02-01T04:35:01.410Z,74.31
2023-02-01T04:38:08.128Z,140.10
2023-02-01T04:41:14.784Z,153.72
2023-02-01T04:44:22.325Z,128.22
2023-02-01T04:47:31.514Z,110.09
2023-02-01T04:50:37.262Z,124.54
2023-02-01T04:53:43.841Z,107.73
2023-02-01T04:56:49.699Z,115.38
2023-02-01T04:59:56.279Z,132.03
2023-02-01T05:03:05.151Z,127.83
2023-02-01T05:06:11.839Z,142.55
2023-02-01T05:09:17.715Z,176.13
2023-02-01T05:12:37.503Z,197.32
2023-02-01T05:15:43.451Z,225.24
2023-02-01T05:18:53.346Z,239.76
2023-02-01T05:22:00.242Z,264.20
2023-02-01T05:25:08.407Z,260.81
2023-02-01T05:28:18.005Z,243.11
2023-02-01T05:31:25.457Z,214.61
2023-02-01T05:34:34.144Z,209.89
2023-02-01T05:37:41.627Z,186.77
2023-02-01T05:40:50.773Z,147.25
2023-02-01T05:43:57.460Z,133.45
2023-02-01T05:47:03.329Z,145.08
2023-02-01T05:50:13.811Z,161.63
2023-02-01T05:53:21.049Z,174.55
2023-02-01T05:56:27.595Z,154.47
2023-02-01T05:59:34.046Z,153.14
2023-02-01T06:02:40.747Z,168.35
2023-02-01T06:05:52.019Z,158.90
2023-02-01T06:08:58.977Z,154.85
2023-02-01T06:12:05.023Z,157.76
2023-02-01T06:15:16.379Z,150.68
2023-02-01T06:18:22.327Z,144.96
2023-02-01T06:21:34.700Z,137.57
2023-02-01T06:24:40.880Z,134.44
2023-02-01T06:27:48.061Z,126.83
2023-02-01T06:30:53.981Z,125.22
2023-02-01T06:34:08.191Z,124.69
2023-02-01T06:37:16.656Z,118.12
2023-02-01T06:40:23.767Z,141.77
2023-02-01T06:43:31.478Z,140.13
2023-02-01T06:46:38.220Z,118.45
2023-02-01T06:49:44.390Z,105.68
2023-02-01T06:53:00.431Z,107.30
2023-02-01T06:56:17.674Z,101.52
2023-02-01T06:59:25.306Z,112.38
2023-02-01T07:02:31.254Z,118.17
2023-02-01T07:05:37.899Z,117.54
2023-02-01T07:08:46.409Z,120.69
2023-02-01T07:11:53.199Z,119.05
2023-02-01T07:14:59.004Z,124.65
2023-02-01T07:18:05.743Z,114.09
2023-02-01T07:21:12.521Z,123.10
2023-02-01T07:24:21.868Z,114.38
2023-02-01T07:27:27.818Z,168.41
2023-02-01T07:30:34.538Z,231.45
2023-02-01T07:33:41.094Z,127.56
2023-02-01T07:36:47.702Z,120.45
2023-02-01T07:39:56.520Z,113.37
2023-02-01T07:43:03.159Z,105.72
2023-02-01T07:46:10.845Z,109.99
2023-02-01T07:49:25.589Z,120.40
2023-02-01T07:52:33.484Z,118.20
2023-02-01T07:55:45.070Z,132.16
2023-02-01T07:58:52.505Z,133.62
2023-02-01T08:01:59.142Z,157.49
2023-02-01T08:05:08.639Z,151.68
2023-02-01T08:08:15.340Z,142.37
2023-02-01T08:11:29.312Z,130.80
2023-02-01T08:14:35.935Z,175.66
2023-02-01T08:17:41.655Z,124.24
2023-02-01T08:20:49.530Z,133.43
2023-02-01T08:23:57.448Z,136.95
2023-02-01T08:27:07.716Z,126.05
2023-02-01T08:30:15.693Z,137.52
2023-02-01T08:33:23.199Z,134.91
2023-02-01T08:36:37.605Z,142.53
2023-02-01T08:39:47.865Z,138.72
2023-02-01T08:42:58.672Z,147.62
2023-02-01T08:46:12.086Z,160.91
2023-02-01T08:49:18.066Z,152.25
2023-02-01T08:52:24.829Z,192.70
2023-02-01T08:55:32.529Z,203.42
2023-02-01T08:58:42.493Z,161.26
2023-02-01T09:01:48.258Z,158.49
2023-02-01T09:04:55.071Z,151.29
2023-02-01T09:08:01.543Z,122.11
2023-02-01T09:11:13.981Z,143.60
2023-02-01T09:14:22.497Z,214.29
2023-02-01T09:17:30.843Z,188.53
2023-02-01T09:20:37.152Z,171.09
2023-02-01T09:23:44.619Z,177.47
2023-02-01T09:26:50.842Z,165.41
2023-02-01T09:30:00.196Z,142.45
2023-02-01T09:33:14.065Z,193.18
2023-02-01T09:36:20.924Z,173.79
2023-02-01T09:39:27.103Z,129.89
2023-02-01T09:43:04.077Z,123.33
2023-02-01T09:46:28.025Z,133.15
2023-02-01T09:49:49.811Z,127.12
2023-02-01T09:53:04.492Z,118.74
2023-02-01T09:56:22.187Z,132.67
2023-02-01T09:59:44.894Z,146.46
2023-02-01T10:02:55.216Z,152.77
2023-02-01T10:06:45.415Z,137.32
2023-02-01T10:10:11.986Z,130.17
2023-02-01T10:13:43.901Z,144.43
2023-02-01T10:17:08.994Z,176.11
2023-02-01T10:20:34.539Z,166.98
2023-02-01T10:24:18.117Z,135.89
2023-02-01T10:27:30.530Z,132.54
2023-02-01T10:30:49.202Z,126.80
2023-02-01T10:34:03.382Z,122.50
2023-02-01T10:37:30.917Z,143.63
2023-02-01T10:40:38.982Z,126.57
2023-02-01T10:43:49.446Z,140.18
2023-02-01T10:46:55.715Z,131.15
2023-02-01T10:50:19.436Z,164.60
2023-02-01T10:53:39.430Z,191.98
2023-02-01T10:56:49.633Z,174.48
2023-02-01T10:59:55.844Z,189.63
2023-02-01T11:03:08.680Z,161.51
2023-02-01T11:06:32.546Z,167.51
2023-02-01T11:09:45.463Z,162.88
2023-02-01T11:12:59.113Z,151.53
2023-02-01T11:16:18.718Z,162.16
2023-02-01T11:19:26.189Z,161.12
2023-02-01T11:22:33.815Z,161.62
2023-02-01T11:25:42.469Z,161.72
2023-02-01T11:29:00.816Z,182.42
2023-02-01T11:32:08.951Z,183.23
2023-02-01T11:35:25.491Z,178.61
2023-02-01T11:38:35.406Z,180.72
2023-02-01T11:42:07.530Z,204.54
2023-02-01T11:45:28.983Z,175.98
2023-02-01T11:48:37.993Z,197.64
2023-02-01T11:52:04.183Z,229.27
2023-02-01T11:55:51.815Z,194.60
2023-02-01T11:59:48.681Z,188.16
2023-02-01T12:03:53.447Z,176.58
2023-02-01T12:07:09.275Z,175.28
2023-02-01T12:10:38.361Z,149.47
2023-02-01T12:14:06.219Z,160.99
2023-02-01T12:17:58.473Z,191.43
2023-02-01T12:21:29.939Z,290.87
2023-02-01T12:25:20.919Z,277.20
2023-02-01T12:29:06.321Z,242.81
2023-02-01T12:32:43.663Z,209.32
2023-02-01T12:36:11.736Z,194.49
2023-02-01T12:39:32.487Z,183.69
2023-02-01T12:42:47.509Z,169.77
2023-02-01T12:46:06.056Z,176.39
2023-02-01T12:49:26.587Z,242.49
2023-02-01T12:52:47.324Z,183.34
2023-02-01T12:55:59.823Z,191.57
2023-02-01T12:59:17.262Z,189.48
2023-02-01T13:02:43.379Z,203.52
2023-02-01T13:06:15.343Z,166.19
2023-02-01T13:09:39.965Z,162.75
2023-02-01T13:13:06.946Z,189.20
2023-02-01T13:16:28.278Z,243.93
2023-02-01T13:19:48.511Z,216.19
2023-02-01T13:23:07.055Z,190.04
2023-02-01T13:26:15.390Z,182.97
2023-02-01T13:29:26.300Z,206.68
2023-02-01T13:33:53.513Z,205.33
2023-02-01T13:36:56.732Z,189.14
2023-02-01T13:40:35.359Z,161.31
2023-02-01T13:43:59.748Z,143.37
2023-02-01T13:47:33.595Z,121.07
2023-02-01T13:50:45.056Z,122.87
2023-02-01T13:53:53.528Z,113.49
2023-02-01T13:57:06.664Z,134.61
2023-02-01T14:00:31.678Z,129.40
2023-02-01T14:03:50.763Z,159.69
2023-02-01T14:07:00.485Z,209.84
2023-02-01T14:10:51.833Z,223.49
2023-02-01T14:14:47.445Z,185.30
2023-02-01T14:17:54.324Z,185.03
2023-02-01T14:21:24.284Z,211.48
2023-02-01T14:24:35.939Z,214.92
2023-02-01T14:27:43.559Z,187.34
2023-02-01T14:30:53.619Z,194.48
2023-02-01T14:34:06.980Z,219.50
2023-02-01T14:37:30.730Z,214.96
2023-02-01T14:40:38.889Z,238.32
2023-02-01T14:44:15.744Z,229.98
2023-02-01T14:47:39.966Z,232.95
2023-02-01T14:50:51.613Z,246.87
2023-02-01T14:53:58.980Z,264.36
2023-02-01T14:57:07.178Z,239.69
2023-02-01T15:00:27.341Z,234.75
2023-02-01T15:03:58.527Z,235.45
2023-02-01T15:07:16.319Z,223.61
2023-02-01T15:10:25.176Z,256.90
2023-02-01T15:13:33.289Z,205.71
2023-02-01T15:16:51.179Z,220.15
2023-02-01T15:20:07.520Z,209.91
2023-02-01T15:23:21.798Z,208.90
2023-02-01T15:26:34.977Z,195.88
2023-02-01T15:29:41.297Z,188.39
2023-02-01T15:32:52.520Z,165.50
2023-02-01T15:36:15.080Z,151.42
2023-02-01T15:39:27.013Z,158.72
2023-02-01T15:42:34.046Z,138.19
2023-02-01T15:45:41.148Z,116.88
2023-02-01T15:48:52.659Z,95.55
2023-02-01T15:52:07.549Z,108.72
2023-02-01T15:55:27.612Z,106.94
2023-02-01T15:58:36.878Z,90.95
2023-02-01T16:01:45.854Z,110.59
2023-02-01T16:04:56.490Z,115.03
2023-02-01T16:08:16.503Z,144.65
2023-02-01T16:11:31.901Z,113.60
2023-02-01T16:14:37.877Z,118.47
2023-02-01T16:17:46.302Z,140.07
2023-02-01T16:20:53.073Z,172.87
2023-02-01T16:24:06.753Z,182.42
2023-02-01T16:27:13.115Z,276.02
2023-02-01T16:30:24.379Z,240.84
2023-02-01T16:33:30.686Z,209.54
2023-02-01T16:36:52.987Z,181.08
2023-02-01T16:40:05.057Z,182.54
2023-02-01T16:43:32.496Z,168.11
2023-02-01T16:46:47.209Z,196.12
2023-02-01T16:49:54.618Z,216.14
2023-02-01T16:53:00.738Z,196.77
2023-02-01T16:56:19.165Z,176.92
2023-02-01T16:59:26.516Z,154.91
2023-02-01T17:02:33.204Z,151.61
2023-02-01T17:05:39.425Z,150.30
2023-02-01T17:08:51.857Z,131.40
2023-02-01T17:12:00.417Z,83.02
2023-02-01T17:15:11.521Z,79.65
2023-02-01T17:18:23.255Z,88.24
2023-02-01T17:21:38.743Z,116.64
2023-02-01T17:24:48.991Z,145.94
2023-02-01T17:27:58.851Z,176.62
2023-02-01T17:31:11.175Z,280.15
2023-02-01T17:34:19.887Z,325.92
2023-02-01T17:37:38.567Z,335.40
2023-02-01T17:40:46.318Z,395.29
2023-02-01T17:43:57.571Z,454.35
2023-02-01T17:47:17.731Z,493.69
2023-02-01T17:50:26.300Z,730.34
2023-02-01T17:53:36.021Z,632.68
2023-02-01T17:56:42.133Z,377.14
2023-02-01T17:59:51.614Z,260.01
2023-02-01T18:02:57.713Z,400.79
2023-02-01T18:06:16.373Z,472.36
2023-02-01T18:09:22.313Z,450.46
2023-02-01T18:12:37.930Z,557.62
2023-02-01T18:15:47.452Z,491.65
2023-02-01T18:18:57.941Z,373.49
2023-02-01T18:22:07.839Z,332.60
2023-02-01T18:25:21.720Z,282.13
2023-02-01T18:28:31.736Z,292.31
2023-02-01T18:31:55.220Z,293.16
2023-02-01T18:35:01.612Z,379.78
2023-02-01T18:38:08.875Z,545.67
2023-02-01T18:41:20.948Z,471.28
2023-02-01T18:44:28.381Z,279.32
2023-02-01T18:47:49.684Z,272.11
2023-02-01T18:51:14.719Z,376.59
2023-02-01T18:54:29.175Z,298.50
2023-02-01T18:57:36.081Z,329.15
2023-02-01T19:00:43.454Z,366.42
2023-02-01T19:03:58.564Z,323.15
2023-02-01T19:07:16.922Z,267.10
2023-02-01T19:10:27.782Z,248.50
2023-02-01T19:13:37.227Z,259.38
2023-02-01T19:16:48.059Z,258.56
2023-02-01T19:20:03.037Z,276.50
2023-02-01T19:23:10.230Z,265.34
2023-02-01T19:26:18.568Z,239.72
2023-02-01T19:29:26.560Z,217.58
2023-02-01T19:32:32.890Z,214.94
2023-02-01T19:35:45.555Z,195.68
2023-02-01T19:38:51.681Z,187.30
2023-02-01T19:41:59.484Z,211.55
2023-02-01T19:45:13.509Z,214.28
2023-02-01T19:48:24.709Z,218.49
2023-02-01T19:51:33.329Z,239.22
2023-02-01T19:54:43.816Z,266.52
2023-02-01T19:57:49.655Z,292.31
2023-02-01T20:00:57.178Z,295.33
2023-02-01T20:04:18.863Z,305.24
2023-02-01T20:07:28.916Z,307.83
2023-02-01T20:10:35.183Z,340.13
2023-02-01T20:13:42.249Z,318.51
2023-02-01T20:16:48.220Z,230.71
2023-02-01T20:19:58.453Z,224.37
2023-02-01T20:23:07.284Z,185.09
2023-02-01T20:26:15.302Z,183.71
2023-02-01T20:29:21.574Z,182.99
2023-02-01T20:32:28.414Z,200.24
2023-02-01T20:35:36.919Z,213.12
2023-02-01T20:38:48.639Z,251.61
2023-02-01T20:41:55.408Z,212.58
2023-02-01T20:45:02.481Z,205.20
2023-02-01T20:48:08.544Z,214.24
2023-02-01T20:51:18.001Z,161.79
2023-02-01T20:54:27.597Z,155.79
2023-02-01T20:57:34.654Z,157.76
2023-02-01T21:00:40.629Z,162.19
2023-02-01T21:03:47.562Z,186.28
2023-02-01T21:06:53.768Z,211.99
2023-02-01T21:10:03.191Z,219.95
2023-02-01T21:13:10.890Z,205.21
2023-02-01T21:16:23.847Z,284.53
2023-02-01T21:19:43.278Z,228.58
2023-02-01T21:22:50.612Z,232.07
2023-02-01T21:26:05.224Z,205.78
2023-02-01T21:29:14.944Z,258.10
2023-02-01T21:32:20.909Z,245.10
2023-02-01T21:35:27.657Z,229.77
2023-02-01T21:38:33.871Z,230.49
2023-02-01T21:41:55.546Z,203.31
2023-02-01T21:45:02.708Z,222.89
2023-02-01T21:48:09.970Z,299.46
2023-02-01T21:51:17.035Z,313.29
2023-02-01T21:54:24.405Z,261.83
2023-02-01T21:57:36.162Z,205.99
2023-02-01T22:00:45.873Z,206.49
2023-02-01T22:03:52.179Z,188.83
2023-02-01T22:06:58.960Z,172.47
2023-02-01T22:10:06.660Z,166.81
2023-02-01T22:13:20.349Z,139.48
2023-02-01T22:16:26.851Z,155.99
2023-02-01T22:19:34.252Z,151.07
2023-02-01T22:22:40.313Z,156.34
2023-02-01T22:25:46.911Z,149.33
2023-02-01T22:28:56.426Z,152.60
2023-02-01T22:32:03.155Z,151.01
2023-02-01T22:35:10.809Z,170.20
2023-02-01T22:38:17.513Z,165.91
2023-02-01T22:41:24.010Z,172.90
2023-02-01T22:44:33.338Z,177.93
2023-02-01T22:47:39.179Z,136.13
2023-02-01T22:50:49.336Z,144.88
2023-02-01T22:54:00.173Z,157.32
2023-02-01T22:57:08.072Z,154.11
2023-02-01T23:00:26.779Z,144.30
2023-02-01T23:03:43.855Z,152.15
2023-02-01T23:06:49.982Z,137.10
2023-02-01T23:09:58.462Z,136.08
2023-02-01T23:13:04.386Z,121.64
2023-02-01T23:16:23.792Z,123.02
2023-02-01T23:19:29.762Z,129.57
2023-02-01T23:22:42.895Z,137.79
2023-02-01T23:25:54.700Z,148.84
2023-02-01T23:29:03.781Z,143.32
2023-02-01T23:32:12.327Z,104.15
2023-02-01T23:35:19.170Z,91.67
2023-02-01T23:38:25.085Z,81.40
2023-02-01T23:41:33.101Z,75.22
2023-02-01T23:44:38.891Z,75.36
2023-02-01T23:47:48.159Z,63.73
2023-02-01T23:50:54.009Z,50.61
2023-02-01T23:54:01.790Z,47.22
2023-02-01T23:57:07.746Z,47.72
